createdAt,value
2019-04-22T00:00:32.808Z,12.40
2019-04-22T00:01:34.595Z,12.40
2019-04-22T00:02:43.554Z,12.40
2019-04-22T00:03:52.711Z,12.40
2019-04-22T00:05:02.270Z,12.30
2019-04-22T00:06:20.376Z,12.30
2019-04-22T00:07:28.933Z,12.30
2019-04-22T00:08:36.046Z,12.30
2019-04-22T00:09:45.952Z,12.30
2019-04-22T00:10:50.234Z,12.30
2019-04-22T00:11:56.056Z,12.40
2019-04-22T00:13:00.058Z,12.40
2019-04-22T00:14:00.670Z,12.40
2019-04-22T00:15:08.143Z,12.30
2019-04-22T00:16:19.823Z,12.30
2019-04-22T00:17:30.658Z,12.40
2019-04-22T00:18:42.880Z,12.40
2019-04-22T00:19:37.279Z,12.40
2019-04-22T00:20:43.911Z,12.40
2019-04-22T00:21:46.168Z,12.40
2019-04-22T00:22:51.850Z,12.40
2019-04-22T00:23:57.868Z,12.50
2019-04-22T00:25:10.060Z,12.50
2019-04-22T00:26:20.343Z,12.40
2019-04-22T00:27:24.371Z,12.50
2019-04-22T00:28:24.850Z,12.50
2019-04-22T00:30:02.471Z,12.40
2019-04-22T00:30:56.162Z,12.40
2019-04-22T00:32:24.622Z,12.30
2019-04-22T00:33:35.357Z,12.30
2019-04-22T00:34:35.882Z,12.20
2019-04-22T00:35:49.779Z,12.10
2019-04-22T00:36:54.844Z,12.10
2019-04-22T00:38:09.229Z,12.10
2019-04-22T00:39:07.469Z,12.00
2019-04-22T00:40:17.743Z,12.10
2019-04-22T00:41:26.717Z,12.10
2019-04-22T00:42:20.854Z,12.20
2019-04-22T00:43:32.729Z,12.20
2019-04-22T00:44:38.946Z,12.30
2019-04-22T00:47:50.383Z,12.10
2019-04-22T00:49:49.101Z,12.10
2019-04-22T00:51:12.321Z,12.00
2019-04-22T00:52:16.626Z,12.00
2019-04-22T00:54:43.948Z,12.00
2019-04-22T00:55:38.125Z,12.00
2019-04-22T00:56:42.139Z,12.00
2019-04-22T00:57:56.246Z,11.90
2019-04-22T00:58:50.274Z,11.90
2019-04-22T01:00:05.593Z,11.90
2019-04-22T01:01:17.424Z,12.00
2019-04-22T01:02:20.275Z,12.00
2019-04-22T01:03:27.482Z,12.00
2019-04-22T01:04:34.800Z,12.10
2019-04-22T01:05:34.192Z,12.20
2019-04-22T01:06:38.832Z,12.10
2019-04-22T01:07:49.953Z,12.00
2019-04-22T01:08:57.962Z,11.90
2019-04-22T01:10:07.494Z,11.80
2019-04-22T01:11:12.607Z,11.90
2019-04-22T01:12:14.171Z,11.80
2019-04-22T01:13:18.589Z,11.80
2019-04-22T01:14:25.048Z,11.80
2019-04-22T01:15:30.328Z,11.70
2019-04-22T01:16:39.266Z,11.80
2019-04-22T01:17:41.750Z,11.80
2019-04-22T01:18:52.277Z,11.80
2019-04-22T01:19:59.774Z,11.80
2019-04-22T01:22:06.709Z,11.60
2019-04-22T01:23:10.995Z,11.70
2019-04-22T01:24:20.778Z,11.70
2019-04-22T01:25:21.647Z,11.70
2019-04-22T01:26:25.370Z,11.60
2019-04-22T01:27:33.438Z,11.60
2019-04-22T01:28:38.703Z,11.50
2019-04-22T01:29:44.064Z,11.50
2019-04-22T01:30:46.872Z,11.50
2019-04-22T01:31:47.353Z,11.50
2019-04-22T01:32:57.915Z,11.50
2019-04-22T01:34:10.330Z,11.60
2019-04-22T01:35:19.632Z,11.60
2019-04-22T01:36:32.392Z,11.60
2019-04-22T01:37:34.577Z,11.60
2019-04-22T01:38:46.895Z,11.70
2019-04-22T01:40:00.164Z,11.70
2019-04-22T01:41:04.683Z,11.70
2019-04-22T01:42:06.224Z,11.70
2019-04-22T01:43:19.937Z,11.60
2019-04-22T01:44:27.957Z,11.60
2019-04-22T01:45:25.830Z,11.60
2019-04-22T01:46:32.070Z,11.60
2019-04-22T01:47:37.370Z,11.50
2019-04-22T01:48:50.596Z,11.60
2019-04-22T01:49:49.539Z,11.50
2019-04-22T01:50:50.095Z,11.50
2019-04-22T01:52:07.744Z,11.50
2019-04-22T01:53:16.386Z,11.50
2019-04-22T01:54:29.946Z,11.50
2019-04-22T01:55:27.439Z,11.50
2019-04-22T01:56:28.928Z,11.50
2019-04-22T01:57:30.398Z,11.50
2019-04-22T01:58:31.138Z,11.50
2019-04-22T01:59:35.584Z,11.50
2019-04-22T02:00:53.676Z,11.50
2019-04-22T02:01:55.044Z,11.50
2019-04-22T02:03:07.269Z,11.40
2019-04-22T02:04:15.227Z,11.40
2019-04-22T02:05:18.980Z,11.40
2019-04-22T02:06:22.758Z,11.50
2019-04-22T02:07:23.532Z,11.50
2019-04-22T02:08:40.560Z,11.40
2019-04-22T02:09:42.793Z,11.40
2019-04-22T02:10:52.616Z,11.30
2019-04-22T02:11:53.369Z,11.30
2019-04-22T02:12:53.304Z,11.20
2019-04-22T02:14:04.637Z,11.20
2019-04-22T02:15:06.601Z,11.20
2019-04-22T02:16:15.225Z,11.20
2019-04-22T02:17:26.537Z,11.20
2019-04-22T02:18:34.472Z,11.20
2019-04-22T02:20:35.893Z,11.30
2019-04-22T02:21:46.175Z,11.30
2019-04-22T02:23:42.865Z,11.20
2019-04-22T02:24:28.356Z,11.20
2019-04-22T02:25:32.771Z,11.20
2019-04-22T02:26:35.544Z,11.20
2019-04-22T02:27:43.763Z,11.20
2019-04-22T02:28:45.796Z,11.30
2019-04-22T02:29:52.303Z,11.30
2019-04-22T02:32:10.575Z,11.30
2019-04-22T02:33:46.594Z,11.20
2019-04-22T02:34:31.144Z,11.20
2019-04-22T02:35:45.939Z,11.20
2019-04-22T02:36:35.817Z,11.10
2019-04-22T02:39:47.096Z,11.10
2019-04-22T02:42:07.953Z,11.10
2019-04-22T02:43:21.906Z,11.10
2019-04-22T02:44:13.567Z,11.10
2019-04-22T02:45:18.205Z,11.00
2019-04-22T02:46:43.259Z,11.10
2019-04-22T02:47:27.119Z,11.00
2019-04-22T02:48:53.970Z,11.00
2019-04-22T02:50:02.369Z,10.90
2019-04-22T02:50:56.477Z,10.90
2019-04-22T02:51:52.302Z,10.90
2019-04-22T02:53:00.874Z,10.90
2019-04-22T02:54:36.425Z,10.90
2019-04-22T02:56:27.469Z,11.00
2019-04-22T02:58:46.958Z,11.00
2019-04-22T02:59:39.878Z,11.10
2019-04-22T03:00:46.240Z,11.10
2019-04-22T03:01:47.036Z,11.10
2019-04-22T03:03:13.718Z,11.00
2019-04-22T03:05:09.126Z,11.00
2019-04-22T03:07:14.693Z,11.00
2019-04-22T03:08:36.758Z,11.10
2019-04-22T03:10:47.326Z,10.90
2019-04-22T03:12:54.103Z,10.90
2019-04-22T03:14:03.283Z,10.90
2019-04-22T03:14:59.905Z,11.00
2019-04-22T03:17:22.103Z,10.90
2019-04-22T03:18:33.026Z,11.00
2019-04-22T03:20:34.821Z,11.00
2019-04-22T03:21:38.146Z,11.10
2019-04-22T03:22:46.879Z,11.00
2019-04-22T03:25:24.281Z,10.90
2019-04-22T03:26:11.909Z,11.00
2019-04-22T03:27:07.792Z,11.00
2019-04-22T03:28:26.702Z,11.00
2019-04-22T03:30:38.495Z,11.00
2019-04-22T03:32:16.557Z,11.00
2019-04-22T03:33:19.275Z,11.00
2019-04-22T03:35:31.717Z,11.00
2019-04-22T03:36:53.485Z,11.00
2019-04-22T03:37:43.229Z,10.90
2019-04-22T03:38:41.192Z,10.90
2019-04-22T03:39:45.651Z,10.90
2019-04-22T03:41:57.303Z,10.90
2019-04-22T03:42:55.720Z,10.80
2019-04-22T03:45:12.086Z,10.80
2019-04-22T03:46:14.615Z,10.70
2019-04-22T03:47:27.954Z,10.80
2019-04-22T03:48:30.543Z,10.70
2019-04-22T03:49:37.153Z,10.80
2019-04-22T03:51:45.707Z,10.70
2019-04-22T03:52:53.054Z,10.80
2019-04-22T03:54:02.813Z,10.70
2019-04-22T03:56:10.914Z,10.70
2019-04-22T03:58:05.436Z,10.70
2019-04-22T03:59:36.975Z,10.80
2019-04-22T04:03:50.670Z,10.60
2019-04-22T04:05:59.524Z,10.60
2019-04-22T04:08:26.458Z,10.70
2019-04-22T04:09:24.084Z,10.60
2019-04-22T04:11:32.257Z,10.60
2019-04-22T04:12:39.919Z,10.60
2019-04-22T04:13:41.630Z,10.60
2019-04-22T04:15:38.370Z,10.60
2019-04-22T04:20:21.810Z,10.60
2019-04-22T04:23:53.306Z,10.70
2019-04-22T04:25:05.773Z,10.60
2019-04-22T04:25:50.292Z,10.60
2019-04-22T04:27:06.724Z,10.60
2019-04-22T04:31:25.024Z,10.50
2019-04-22T04:32:41.622Z,10.50
2019-04-22T04:33:35.924Z,10.60
2019-04-22T04:34:56.295Z,10.70
2019-04-22T04:35:56.658Z,10.70
2019-04-22T04:36:54.945Z,10.60
2019-04-22T04:39:02.967Z,10.60
2019-04-22T04:40:12.591Z,10.60
2019-04-22T04:41:19.381Z,10.60
2019-04-22T04:44:59.503Z,10.60
2019-04-22T04:46:51.754Z,10.70
2019-04-22T04:49:00.071Z,10.80
2019-04-22T04:51:16.134Z,10.80
2019-04-22T04:52:17.000Z,10.80
2019-04-22T04:53:22.777Z,10.90
2019-04-22T04:54:35.525Z,10.90
2019-04-22T04:55:28.531Z,10.90
2019-04-22T04:56:38.525Z,10.90
2019-04-22T04:58:01.054Z,11.00
2019-04-22T04:58:56.409Z,10.90
2019-04-22T05:00:30.619Z,11.00
2019-04-22T05:02:06.616Z,11.10
2019-04-22T05:03:10.630Z,11.10
2019-04-22T05:05:26.613Z,11.20
2019-04-22T05:06:39.281Z,11.20
2019-04-22T05:07:40.509Z,11.20
2019-04-22T05:09:44.750Z,11.20
2019-04-22T05:11:11.532Z,11.20
2019-04-22T05:15:18.520Z,11.20
2019-04-22T05:17:25.799Z,11.30
2019-04-22T05:19:32.814Z,11.40
2019-04-22T05:20:53.469Z,11.40
2019-04-22T05:21:53.298Z,11.50
2019-04-22T05:22:51.073Z,11.60
2019-04-22T05:24:03.799Z,11.50
2019-04-22T05:26:18.282Z,11.60
2019-04-22T05:27:21.716Z,11.60
2019-04-22T05:28:24.443Z,11.70
2019-04-22T05:29:43.547Z,11.70
2019-04-22T05:30:45.994Z,11.70
2019-04-22T05:31:47.994Z,11.70
2019-04-22T05:33:56.349Z,11.70
2019-04-22T05:34:59.729Z,11.80
2019-04-22T05:36:10.194Z,11.70
2019-04-22T05:37:14.719Z,11.80
2019-04-22T05:38:20.147Z,11.80
2019-04-22T05:39:36.192Z,11.80
2019-04-22T05:40:28.232Z,11.80
2019-04-22T05:41:36.403Z,11.80
2019-04-22T05:42:39.676Z,11.90
2019-04-22T05:43:53.271Z,11.90
2019-04-22T05:44:56.603Z,11.90
2019-04-22T05:46:01.087Z,11.90
2019-04-22T05:47:01.182Z,12.00
2019-04-22T05:48:13.671Z,12.00
2019-04-22T05:50:19.926Z,12.00
2019-04-22T05:51:31.235Z,12.10
2019-04-22T05:52:31.555Z,12.10
2019-04-22T05:53:43.462Z,12.10
2019-04-22T05:54:50.540Z,12.10
2019-04-22T05:56:56.218Z,12.20
2019-04-22T05:58:02.787Z,12.20
2019-04-22T05:59:14.661Z,12.20
2019-04-22T06:00:25.832Z,12.20
2019-04-22T06:02:39.773Z,12.30
2019-04-22T06:03:37.878Z,12.30
2019-04-22T06:04:48.453Z,12.40
2019-04-22T06:06:00.888Z,12.40
2019-04-22T06:06:46.940Z,12.40
2019-04-22T06:08:01.517Z,12.40
2019-04-22T06:09:07.156Z,12.40
2019-04-22T06:11:22.946Z,12.50
2019-04-22T06:12:23.509Z,12.50
2019-04-22T06:13:30.489Z,12.50
2019-04-22T06:14:37.680Z,12.50
2019-04-22T06:15:39.010Z,12.50
2019-04-22T06:16:57.187Z,12.50
2019-04-22T06:18:09.577Z,12.50
2019-04-22T06:19:21.238Z,12.50
2019-04-22T06:20:15.695Z,12.50
2019-04-22T06:21:22.415Z,12.60
2019-04-22T06:23:42.715Z,12.60
2019-04-22T06:24:31.428Z,12.70
2019-04-22T06:27:54.197Z,12.80
2019-04-22T06:29:06.685Z,12.80
2019-04-22T06:30:12.642Z,12.80
2019-04-22T06:31:16.013Z,12.80
2019-04-22T06:32:31.524Z,12.80
2019-04-22T06:33:30.206Z,12.80
2019-04-22T06:34:48.283Z,12.90
2019-04-22T06:38:14.532Z,13.00
2019-04-22T06:38:55.661Z,13.00
2019-04-22T06:40:10.997Z,13.00
2019-04-22T06:42:19.231Z,13.10
2019-04-22T06:43:22.176Z,13.10
2019-04-22T06:46:41.993Z,13.20
2019-04-22T06:48:52.817Z,13.20
2019-04-22T06:49:55.567Z,13.20
2019-04-22T06:51:05.152Z,13.20
2019-04-22T06:52:13.725Z,13.20
2019-04-22T06:53:16.808Z,13.20
2019-04-22T06:54:22.066Z,13.20
2019-04-22T06:55:35.756Z,13.20
2019-04-22T06:56:27.190Z,13.30
2019-04-22T06:57:38.216Z,13.30
2019-04-22T06:58:52.324Z,13.30
2019-04-22T06:59:51.585Z,13.30
2019-04-22T07:00:53.182Z,13.30
2019-04-22T07:03:28.598Z,13.40
2019-04-22T07:04:09.261Z,13.40
2019-04-22T07:05:21.766Z,13.50
2019-04-22T07:07:31.483Z,13.50
2019-04-22T07:09:48.689Z,13.50
2019-04-22T07:10:50.449Z,13.50
2019-04-22T07:12:02.432Z,13.60
2019-04-22T07:13:03.539Z,13.60
2019-04-22T07:15:24.407Z,13.60
2019-04-22T07:16:26.245Z,13.70
2019-04-22T07:17:29.690Z,13.70
2019-04-22T07:18:37.287Z,13.70
2019-04-22T07:19:40.892Z,13.70
2019-04-22T07:20:50.831Z,13.80
2019-04-22T07:21:50.597Z,13.80
2019-04-22T07:23:01.948Z,13.80
2019-04-22T07:24:21.128Z,13.80
2019-04-22T07:25:10.202Z,13.90
2019-04-22T07:26:18.957Z,13.90
2019-04-22T07:27:21.701Z,13.90
2019-04-22T07:28:27.384Z,14.00
2019-04-22T07:29:36.257Z,14.00
2019-04-22T07:30:41.072Z,14.00
2019-04-22T07:31:49.849Z,14.00
2019-04-22T07:33:11.427Z,14.10
2019-04-22T07:33:58.469Z,14.10
2019-04-22T07:35:08.548Z,14.10
2019-04-22T07:37:29.604Z,14.20
2019-04-22T07:38:29.934Z,14.20
2019-04-22T07:39:29.709Z,14.20
2019-04-22T07:40:38.952Z,14.20
2019-04-22T07:44:54.770Z,14.30
2019-04-22T07:46:18.746Z,14.40
2019-04-22T07:48:26.560Z,14.40
2019-04-22T07:49:25.830Z,14.50
2019-04-22T07:50:43.077Z,14.50
2019-04-22T07:51:32.603Z,14.50
2019-04-22T07:52:38.628Z,14.50
2019-04-22T07:53:40.593Z,14.50
2019-04-22T07:54:52.548Z,14.50
2019-04-22T07:56:01.691Z,14.50
2019-04-22T07:57:08.746Z,14.50
2019-04-22T07:58:11.876Z,14.50
2019-04-22T07:59:18.613Z,14.60
2019-04-22T08:00:28.048Z,14.60
2019-04-22T08:01:28.010Z,14.60
2019-04-22T08:02:37.871Z,14.60
2019-04-22T08:03:51.767Z,14.70
2019-04-22T08:04:59.016Z,14.70
2019-04-22T08:06:02.555Z,14.70
2019-04-22T08:06:58.934Z,14.70
2019-04-22T08:08:10.931Z,14.80
2019-04-22T08:09:15.279Z,14.80
2019-04-22T08:10:23.804Z,14.80
2019-04-22T08:11:37.547Z,14.80
2019-04-22T08:12:36.557Z,14.80
2019-04-22T08:13:38.551Z,14.90
2019-04-22T08:14:42.183Z,14.90
2019-04-22T08:15:45.465Z,14.90
2019-04-22T08:17:01.381Z,14.90
2019-04-22T08:18:06.830Z,14.90
2019-04-22T08:19:10.574Z,14.90
2019-04-22T08:20:09.257Z,14.90
2019-04-22T08:21:12.378Z,14.90
2019-04-22T08:22:24.021Z,14.90
2019-04-22T08:23:33.629Z,14.90
2019-04-22T08:24:42.055Z,14.90
2019-04-22T08:25:45.752Z,14.90
2019-04-22T08:26:52.021Z,14.90
2019-04-22T08:27:56.848Z,14.90
2019-04-22T08:28:59.060Z,15.00
2019-04-22T08:30:14.432Z,15.00
2019-04-22T08:31:14.567Z,15.00
2019-04-22T08:32:21.929Z,15.00
2019-04-22T08:33:29.458Z,15.00
2019-04-22T08:34:35.747Z,15.00
2019-04-22T08:35:52.520Z,15.00
2019-04-22T08:36:58.877Z,15.00
2019-04-22T08:37:51.201Z,15.00
2019-04-22T08:40:09.552Z,15.10
2019-04-22T08:41:28.442Z,15.10
2019-04-22T08:42:34.971Z,15.10
2019-04-22T08:43:36.491Z,15.10
2019-04-22T08:45:50.033Z,15.10
2019-04-22T08:46:56.182Z,15.10
2019-04-22T08:47:57.629Z,15.10
2019-04-22T08:49:16.439Z,15.10
2019-04-22T08:51:21.091Z,15.30
2019-04-22T08:52:20.828Z,15.50
2019-04-22T08:53:34.299Z,15.70
2019-04-22T08:54:37.663Z,15.70
2019-04-22T08:55:54.168Z,15.70
2019-04-22T08:56:45.021Z,15.70
2019-04-22T08:58:08.447Z,15.70
2019-04-22T08:59:01.995Z,15.60
2019-04-22T09:00:04.038Z,15.60
2019-04-22T09:01:13.651Z,15.60
2019-04-22T09:02:20.492Z,15.70
2019-04-22T09:03:17.353Z,15.70
2019-04-22T09:04:27.881Z,15.60
2019-04-22T09:07:07.704Z,15.60
2019-04-22T09:07:46.967Z,15.70
2019-04-22T09:08:55.198Z,15.80
2019-04-22T09:09:55.650Z,15.70
2019-04-22T09:11:11.339Z,15.70
2019-04-22T09:12:15.951Z,15.60
2019-04-22T09:13:26.294Z,15.50
2019-04-22T09:14:26.149Z,15.60
2019-04-22T09:15:30.414Z,15.80
2019-04-22T09:16:39.638Z,15.80
2019-04-22T09:17:40.329Z,15.70
2019-04-22T09:18:48.248Z,15.70
2019-04-22T09:19:56.623Z,15.60
2019-04-22T09:21:07.056Z,15.60
2019-04-22T09:22:09.717Z,15.50
2019-04-22T09:23:17.691Z,15.50
2019-04-22T09:24:16.102Z,15.40
2019-04-22T09:25:26.882Z,15.40
2019-04-22T09:26:34.657Z,15.50
2019-04-22T09:27:41.297Z,15.50
2019-04-22T09:28:48.291Z,15.50
2019-04-22T09:29:43.159Z,15.50
2019-04-22T09:31:02.076Z,15.50
2019-04-22T09:32:08.038Z,15.50
2019-04-22T09:33:14.060Z,15.50
2019-04-22T09:34:14.023Z,15.50
2019-04-22T09:35:30.489Z,15.50
2019-04-22T09:36:33.984Z,15.50
2019-04-22T09:37:39.203Z,15.60
2019-04-22T09:39:51.662Z,15.60
2019-04-22T09:40:52.515Z,15.60
2019-04-22T09:41:57.152Z,15.60
2019-04-22T09:43:04.944Z,15.60
2019-04-22T09:44:09.355Z,15.90
2019-04-22T09:45:15.155Z,15.90
2019-04-22T09:46:25.021Z,16.10
2019-04-22T09:48:37.551Z,16.20
2019-04-22T09:50:48.217Z,16.20
2019-04-22T09:51:54.186Z,16.20
2019-04-22T09:53:02.120Z,16.20
2019-04-22T09:54:10.050Z,16.20
2019-04-22T09:55:22.730Z,16.20
2019-04-22T09:56:18.085Z,16.30
2019-04-22T09:57:20.979Z,16.30
2019-04-22T09:58:32.076Z,16.40
2019-04-22T09:59:40.937Z,16.50
2019-04-22T10:00:43.026Z,16.50
2019-04-22T10:01:59.380Z,16.50
2019-04-22T10:03:00.930Z,16.50
2019-04-22T10:04:00.813Z,16.60
2019-04-22T10:05:07.600Z,16.60
2019-04-22T10:06:17.327Z,16.70
2019-04-22T10:07:23.928Z,16.70
2019-04-22T10:08:33.960Z,16.70
2019-04-22T10:10:38.071Z,16.80
2019-04-22T10:13:03.154Z,16.80
2019-04-22T10:14:03.915Z,16.80
2019-04-22T10:14:54.017Z,16.80
2019-04-22T10:16:10.782Z,16.80
2019-04-22T10:17:08.107Z,16.80
2019-04-22T10:18:20.318Z,16.80
2019-04-22T10:19:23.200Z,16.80
2019-04-22T10:20:36.320Z,16.80
2019-04-22T10:21:40.074Z,16.90
2019-04-22T10:23:47.237Z,16.90
2019-04-22T10:24:53.195Z,17.00
2019-04-22T10:25:57.438Z,17.00
2019-04-22T10:27:01.733Z,17.00
2019-04-22T10:28:14.733Z,17.20
2019-04-22T10:29:20.291Z,17.20
2019-04-22T10:30:34.187Z,17.50
2019-04-22T10:31:36.977Z,17.80
2019-04-22T10:32:35.349Z,17.70
2019-04-22T10:33:36.291Z,17.70
2019-04-22T10:34:34.058Z,17.80
2019-04-22T10:35:32.228Z,17.80
2019-04-22T10:36:37.703Z,17.80
2019-04-22T10:37:42.766Z,17.70
2019-04-22T10:38:48.579Z,17.70
2019-04-22T10:39:58.564Z,17.70
2019-04-22T10:41:00.696Z,17.60
2019-04-22T10:42:05.058Z,17.70
2019-04-22T10:43:11.506Z,17.70
2019-04-22T10:44:17.048Z,17.60
2019-04-22T10:45:21.947Z,17.60
2019-04-22T10:46:26.534Z,17.60
2019-04-22T10:47:32.032Z,17.50
2019-04-22T10:48:36.700Z,17.70
2019-04-22T10:49:42.448Z,17.70
2019-04-22T10:50:48.787Z,17.80
2019-04-22T10:51:53.102Z,17.90
2019-04-22T10:52:57.459Z,17.90
2019-04-22T10:54:01.941Z,18.00
2019-04-22T10:55:07.531Z,18.00
2019-04-22T10:56:12.724Z,18.00
2019-04-22T10:57:18.156Z,17.90
2019-04-22T10:58:22.970Z,17.90
2019-04-22T10:59:27.260Z,17.80
2019-04-22T11:00:31.761Z,17.80
2019-04-22T11:01:38.496Z,17.80
2019-04-22T11:02:43.601Z,17.70
2019-04-22T11:04:56.349Z,17.70
2019-04-22T11:06:01.266Z,17.80
2019-04-22T11:07:10.501Z,17.90
2019-04-22T11:08:20.363Z,18.00
2019-04-22T11:09:20.365Z,17.90
2019-04-22T11:10:36.801Z,17.90
2019-04-22T11:11:42.061Z,17.80
2019-04-22T11:12:38.037Z,17.80
2019-04-22T11:13:44.053Z,17.80
2019-04-22T11:14:49.718Z,17.90
2019-04-22T11:15:55.027Z,17.90
2019-04-22T11:17:02.262Z,17.90
2019-04-22T11:18:07.353Z,17.80
2019-04-22T11:19:11.927Z,17.80
2019-04-22T11:20:17.664Z,17.80
2019-04-22T11:21:23.240Z,17.90
2019-04-22T11:22:32.226Z,18.00
2019-04-22T11:23:34.414Z,18.10
2019-04-22T11:24:38.973Z,18.20
2019-04-22T11:25:43.921Z,18.10
2019-04-22T11:26:49.293Z,18.10
2019-04-22T11:27:53.805Z,18.10
2019-04-22T11:28:59.361Z,18.00
2019-04-22T11:30:05.780Z,18.00
2019-04-22T11:31:10.509Z,18.10
2019-04-22T11:32:14.971Z,18.30
2019-04-22T11:33:20.445Z,18.30
2019-04-22T11:34:26.824Z,18.30
2019-04-22T11:35:32.072Z,18.30
2019-04-22T11:36:37.049Z,18.20
2019-04-22T11:37:42.529Z,18.30
2019-04-22T11:38:55.264Z,18.30
2019-04-22T11:40:04.620Z,18.40
2019-04-22T11:41:00.041Z,18.40
2019-04-22T11:42:05.163Z,18.40
2019-04-22T11:43:10.236Z,18.30
2019-04-22T11:44:15.121Z,18.20
2019-04-22T11:45:21.576Z,18.10
2019-04-22T11:46:27.243Z,18.10
2019-04-22T11:47:33.088Z,18.00
2019-04-22T11:48:38.114Z,18.00
2019-04-22T11:49:43.808Z,18.20
2019-04-22T11:50:48.206Z,18.20
2019-04-22T11:51:54.119Z,18.20
2019-04-22T11:52:58.665Z,18.20
2019-04-22T11:54:03.102Z,18.30
2019-04-22T11:55:08.703Z,18.40
2019-04-22T11:56:13.270Z,18.60
2019-04-22T11:57:19.039Z,18.50
2019-04-22T11:58:24.635Z,18.50
2019-04-22T11:59:29.081Z,18.70
2019-04-22T12:00:34.978Z,19.00
2019-04-22T12:01:39.624Z,19.00
2019-04-22T12:02:44.886Z,18.90
2019-04-22T12:03:49.564Z,18.70
2019-04-22T12:04:54.028Z,18.50
2019-04-22T12:05:59.749Z,18.40
2019-04-22T12:07:05.898Z,18.30
2019-04-22T12:08:11.253Z,18.20
2019-04-22T12:09:17.718Z,18.20
2019-04-22T12:10:29.859Z,18.20
2019-04-22T12:11:28.571Z,18.20
2019-04-22T12:12:32.863Z,18.10
2019-04-22T12:13:37.938Z,18.20
2019-04-22T12:14:42.485Z,18.10
2019-04-22T12:15:46.862Z,18.10
2019-04-22T12:16:51.373Z,18.10
2019-04-22T12:17:57.289Z,18.10
2019-04-22T12:19:02.959Z,18.10
2019-04-22T12:20:12.306Z,18.10
2019-04-22T12:21:15.333Z,18.10
2019-04-22T12:22:20.882Z,18.20
2019-04-22T12:23:25.308Z,18.20
2019-04-22T12:24:30.231Z,18.20
2019-04-22T12:25:46.356Z,18.10
2019-04-22T12:26:42.363Z,18.10
2019-04-22T12:27:47.302Z,18.20
2019-04-22T12:28:53.064Z,18.40
2019-04-22T12:29:58.743Z,18.40
2019-04-22T12:31:03.715Z,18.40
2019-04-22T12:32:09.427Z,18.40
2019-04-22T12:33:14.975Z,18.50
2019-04-22T12:34:19.686Z,18.50
2019-04-22T12:35:24.353Z,18.50
2019-04-22T12:36:28.854Z,18.50
2019-04-22T12:37:40.745Z,18.40
2019-04-22T12:38:39.917Z,18.50
2019-04-22T12:39:45.363Z,18.50
2019-04-22T12:40:56.579Z,18.40
2019-04-22T12:41:56.216Z,18.40
2019-04-22T12:43:04.131Z,18.40
2019-04-22T12:44:07.538Z,18.40
2019-04-22T12:45:13.912Z,18.40
2019-04-22T12:46:18.589Z,18.50
2019-04-22T12:47:24.359Z,18.50
2019-04-22T12:48:28.789Z,18.40
2019-04-22T12:49:35.629Z,18.40
2019-04-22T12:50:42.414Z,18.40
2019-04-22T12:51:45.441Z,18.50
2019-04-22T12:52:55.406Z,18.50
2019-04-22T12:53:57.076Z,18.50
2019-04-22T12:55:01.688Z,18.50
2019-04-22T12:56:07.040Z,18.50
2019-04-22T12:57:12.337Z,18.50
2019-04-22T12:58:17.973Z,18.50
2019-04-22T12:59:23.678Z,18.50
2019-04-22T13:00:30.034Z,18.50
2019-04-22T13:01:35.066Z,18.50
2019-04-22T13:02:40.822Z,18.40
2019-04-22T13:03:46.213Z,18.50
2019-04-22T13:04:52.016Z,18.70
2019-04-22T13:05:57.420Z,18.90
2019-04-22T13:07:01.975Z,18.90
2019-04-22T13:08:07.579Z,18.70
2019-04-22T13:09:12.682Z,18.70
2019-04-22T13:10:19.971Z,18.50
2019-04-22T13:11:30.478Z,18.50
2019-04-22T13:12:31.102Z,18.40
2019-04-22T13:13:36.729Z,18.40
2019-04-22T13:14:41.202Z,18.40
2019-04-22T13:15:46.691Z,18.40
2019-04-22T13:16:51.264Z,18.50
2019-04-22T13:18:05.763Z,18.50
2019-04-22T13:19:05.706Z,18.60
2019-04-22T13:20:09.745Z,18.60
2019-04-22T13:21:14.968Z,18.70
2019-04-22T13:22:21.075Z,18.60
2019-04-22T13:23:25.632Z,18.70
2019-04-22T13:24:30.184Z,18.70
2019-04-22T13:25:34.765Z,18.70
2019-04-22T13:26:39.109Z,18.60
2019-04-22T13:27:44.815Z,18.60
2019-04-22T13:28:49.336Z,18.60
2019-04-22T13:29:55.070Z,18.60
2019-04-22T13:31:01.780Z,18.50
2019-04-22T13:32:06.886Z,18.50
2019-04-22T13:33:12.532Z,18.50
2019-04-22T13:34:24.347Z,18.60
2019-04-22T13:35:24.684Z,18.60
2019-04-22T13:36:31.676Z,18.60
2019-04-22T13:37:37.003Z,18.60
2019-04-22T13:38:42.858Z,18.70
2019-04-22T13:39:47.371Z,18.90
2019-04-22T13:41:12.520Z,19.00
2019-04-22T13:42:02.267Z,18.90
2019-04-22T13:43:04.619Z,18.90
2019-04-22T13:44:09.297Z,18.90
2019-04-22T13:45:13.863Z,18.90
2019-04-22T13:46:18.082Z,18.80
2019-04-22T13:47:37.372Z,18.80
2019-04-22T13:48:49.903Z,18.90
2019-04-22T13:50:11.744Z,19.00
2019-04-22T13:52:21.058Z,18.80
2019-04-22T13:55:32.846Z,18.60
2019-04-22T13:56:30.436Z,18.60
2019-04-22T13:57:35.917Z,18.50
2019-04-22T13:58:38.242Z,18.60
2019-04-22T13:59:36.599Z,18.70
2019-04-22T14:00:36.277Z,18.90
2019-04-22T14:02:04.260Z,18.90
2019-04-22T14:03:35.565Z,18.90
2019-04-22T14:04:41.173Z,18.90
2019-04-22T14:05:46.760Z,19.00
2019-04-22T14:06:52.442Z,18.90
2019-04-22T14:07:58.821Z,18.90
2019-04-22T14:09:03.237Z,18.90
2019-04-22T14:10:08.670Z,19.00
2019-04-22T14:11:23.014Z,19.00
2019-04-22T14:12:20.355Z,19.00
2019-04-22T14:13:25.860Z,19.00
2019-04-22T14:14:30.320Z,18.90
2019-04-22T14:15:36.491Z,18.90
2019-04-22T14:16:40.971Z,18.80
2019-04-22T14:17:45.414Z,18.70
2019-04-22T14:18:49.929Z,18.70
2019-04-22T14:19:54.991Z,18.60
2019-04-22T14:21:00.801Z,18.60
2019-04-22T14:22:07.467Z,18.70
2019-04-22T14:23:13.695Z,18.70
2019-04-22T14:24:19.626Z,18.70
2019-04-22T14:25:24.851Z,18.60
2019-04-22T14:26:44.172Z,18.60
2019-04-22T14:27:47.518Z,18.60
2019-04-22T14:28:41.664Z,18.50
2019-04-22T14:29:47.188Z,18.50
2019-04-22T14:30:52.668Z,18.50
2019-04-22T14:32:06.927Z,18.60
2019-04-22T14:33:04.814Z,18.60
2019-04-22T14:34:10.187Z,18.60
2019-04-22T14:35:15.849Z,18.60
2019-04-22T14:36:21.371Z,18.60
2019-04-22T14:37:25.595Z,18.60
2019-04-22T14:38:30.267Z,18.60
2019-04-22T14:39:35.792Z,18.60
2019-04-22T14:40:41.450Z,18.60
2019-04-22T14:42:12.377Z,18.50
2019-04-22T14:43:17.631Z,18.50
2019-04-22T14:44:56.376Z,18.50
2019-04-22T14:45:30.403Z,18.40
2019-04-22T14:47:39.413Z,18.50
2019-04-22T14:48:45.892Z,18.50
2019-04-22T14:49:56.039Z,18.60
2019-04-22T14:50:53.179Z,18.50
2019-04-22T14:52:10.686Z,18.60
2019-04-22T14:53:09.838Z,18.50
2019-04-22T14:54:09.820Z,18.40
2019-04-22T14:55:08.023Z,18.50
2019-04-22T14:56:06.498Z,18.60
2019-04-22T14:57:12.864Z,18.50
2019-04-22T14:58:17.453Z,18.50
2019-04-22T14:59:22.886Z,18.50
2019-04-22T15:00:27.844Z,18.50
2019-04-22T15:01:32.912Z,18.40
2019-04-22T15:02:37.551Z,18.40
2019-04-22T15:03:47.976Z,18.40
2019-04-22T15:04:52.223Z,18.40
2019-04-22T15:05:57.952Z,18.30
2019-04-22T15:07:03.090Z,18.30
2019-04-22T15:08:08.850Z,18.30
2019-04-22T15:09:14.412Z,18.30
2019-04-22T15:10:22.089Z,18.40
2019-04-22T15:11:26.863Z,18.40
2019-04-22T15:12:39.278Z,18.40
2019-04-22T15:13:37.096Z,18.30
2019-04-22T15:14:41.687Z,18.30
2019-04-22T15:16:03.985Z,18.30
2019-04-22T15:17:27.181Z,18.30
2019-04-22T15:18:37.891Z,18.50
2019-04-22T15:20:03.969Z,18.50
2019-04-22T15:21:14.491Z,18.50
2019-04-22T15:22:18.858Z,18.40
2019-04-22T15:23:24.652Z,18.40
2019-04-22T15:24:29.536Z,18.30
2019-04-22T15:25:34.877Z,18.30
2019-04-22T15:26:40.134Z,18.30
2019-04-22T15:27:45.795Z,18.30
2019-04-22T15:28:51.399Z,18.30
2019-04-22T15:29:57.000Z,18.30
2019-04-22T15:31:01.588Z,18.20
2019-04-22T15:32:07.383Z,18.30
2019-04-22T15:33:11.908Z,18.40
2019-04-22T15:34:16.345Z,18.40
2019-04-22T15:35:20.624Z,18.30
2019-04-22T15:36:26.134Z,18.30
2019-04-22T15:37:31.138Z,18.30
2019-04-22T15:38:36.496Z,18.30
2019-04-22T15:39:41.533Z,18.30
2019-04-22T15:40:46.940Z,18.20
2019-04-22T15:42:01.510Z,18.20
2019-04-22T15:42:59.064Z,18.10
2019-04-22T15:44:03.735Z,18.10
2019-04-22T15:45:09.038Z,18.10
2019-04-22T15:46:14.230Z,18.10
2019-04-22T15:47:18.919Z,18.10
2019-04-22T15:48:24.954Z,18.10
2019-04-22T15:49:29.741Z,18.00
2019-04-22T15:50:35.065Z,18.30
2019-04-22T15:51:40.783Z,18.40
2019-04-22T15:52:50.018Z,18.40
2019-04-22T15:53:51.924Z,18.40
2019-04-22T15:54:56.445Z,18.40